Latest Weather Observations for Newman Airport

IDW60801

Issued at 10:32 pm WST Friday 4 September 2015 (issued every 30 minutes, with the page automatically refreshed every 10 minutes)

About weather observations | Map of weather stations | Latest weather observations for WA | Other Formats
Station Details ID: 007176 Name: NEWMAN AERO Lat: -23.42 Lon: 119.80 Height: 524.0 m
Data from the previous 72 hours. | See also: Recent months at Newman Airport
Date/Time
WST
Temp
°C
App
Temp
°C
Dew
Point
Rel
Hum
%
Delta-T
°C
Wind Press
QNH
hPa
Press
MSL
hPa
Rain
since 9 am
mm
Dir
 
Spd
km/h
Gust
km/h
Spd
kts
Gust
kts
04/10:30pm 20.1 16.6 1.5 29 8.7 NW 9 11 5 6 1018.7 1016.5 0.0
04/10:00pm 21.3 17.1 1.6 27 9.3 WNW 13 17 7 9 1018.8 1016.6 0.0
04/09:30pm 21.3 17.5 1.6 27 9.3 NNW 11 13 6 7 1018.7 1016.5 0.0
04/09:00pm 21.4 17.4 0.6 25 9.7 NNW 11 13 6 7 1018.7 1016.5 0.0
04/08:30pm 21.8 17.9 0.9 25 9.8 NNW 11 13 6 7 1018.6 1016.4 0.0
04/08:00pm 22.2 18.6 0.7 24 10.1 NNW 9 11 5 6 1018.3 1016.0 0.0
04/07:30pm 23.0 19.3 0.2 22 10.7 NNW 9 9 5 5 1018.1 1015.8 0.0
04/07:00pm 23.8 20.1 0.2 21 11.1 NNW 9 11 5 6 1017.8 1015.5 0.0
04/06:30pm 25.0 21.4 0.5 20 11.7 NNW 9 11 5 6 1017.4 1015.1 0.0
04/06:00pm 26.6 22.6 0.4 18 12.6 NNW 11 15 6 8 1016.9 1014.7 0.0
04/05:30pm 27.9 23.5 0.6 17 13.3 NNW 13 19 7 10 1016.7 1014.5 0.0
04/05:00pm 28.7 23.8 -0.5 15 14.0 NNW 15 20 8 11 1016.4 1014.1 0.0
04/04:30pm 29.1 23.0 -2.1 13 14.6 NW 20 32 11 17 1016.3 1014.0 0.0
04/04:00pm 29.8 23.7 -2.6 12 15.1 NNW 20 30 11 16 1016.2 1013.9 0.0
04/03:30pm 29.9 23.9 -1.5 13 15.0 NNW 20 30 11 16 1016.3 1014.0 0.0
04/03:00pm 29.7 24.0 -3.9 11 15.3 N 17 28 9 15 1016.2 1013.9 0.0
04/02:30pm 29.3 23.5 -4.2 11 15.2 N 17 28 9 15 1016.5 1014.2 0.0
04/02:00pm 29.0 23.1 -5.7 10 15.3 N 17 32 9 17 1016.8 1014.6 0.0
04/01:30pm 28.5 21.2 -6.0 10 15.0 NNE 24 37 13 20 1017.1 1014.9 0.0
04/01:00pm 28.6 21.8 -4.7 11 14.8 NNE 22 41 12 22 1017.6 1015.3 0.0
04/12:30pm 27.2 20.5 -4.6 12 14.1 NE 22 33 12 18 1018.0 1015.7 0.0
04/12:00pm 26.9 19.0 -4.9 12 13.9 NE 28 41 15 22 1018.6 1016.4 0.0
04/11:30am 26.7 18.5 -4.0 13 13.7 NNE 30 43 16 23 1019.2 1017.0 0.0
04/11:00am 26.1 18.2 -4.4 13 13.4 NE 28 39 15 21 1019.7 1017.4 0.0
04/10:30am 24.6 17.6 -3.7 15 12.4 NE 24 37 13 20 1020.0 1017.7 0.0
04/10:00am 23.3 15.9 -3.9 16 11.8 NNE 26 37 14 20 1020.2 1018.0 0.0
04/09:30am 23.4 15.6 -3.8 16 11.8 NE 28 39 15 21 1020.3 1018.1 0.0
04/09:00am 21.7 14.6 -4.4 17 11.0 NE 24 33 13 18 1020.6 1018.4 0.0
04/08:30am 20.8 15.3 -2.3 21 10.1 NE 17 24 9 13 1020.5 1018.3 0.0
04/08:00am 18.5 14.3 -0.8 27 8.5 NE 11 17 6 9 1020.4 1018.2 0.0
04/07:30am 16.5 14.0 1.4 36 6.9 E 4 7 2 4 1020.3 1018.1 0.0
04/07:00am 12.9 10.0 1.3 45 5.1 ESE 6 7 3 4 1020.0 1017.7 0.0
04/06:30am 9.4 6.5 1.6 58 3.3 ESE 6 7 3 4 1019.9 1017.6 0.0
04/06:00am 10.5 7.6 1.3 53 3.9 SE 6 7 3 4 1019.7 1017.4 0.0
04/05:30am 11.1 8.6 1.4 51 4.2 ESE 4 7 2 4 1019.5 1017.2 0.0
04/05:00am 12.9 10.0 1.3 45 5.1 ENE 6 7 3 4 1019.1 1016.9 0.0
04/04:30am 12.0 9.1 1.3 48 4.7 NE 6 7 3 4 1019.0 1016.8 0.0
04/04:00am 11.0 9.2 1.3 51 4.2 CALM 0 7 0 4 1019.0 1016.8 0.0
04/03:30am 11.6 8.6 1.0 48 4.6 N 6 7 3 4 1018.9 1016.7 0.0
04/03:00am 12.1 9.0 1.1 47 4.8 N 7 9 4 5 1018.8 1016.6 0.0
04/02:30am 11.5 8.4 1.5 50 4.4 N 7 13 4 7 1018.9 1016.7 0.0
04/02:00am 11.0 8.1 1.5 52 4.1 N 6 7 3 4 1018.6 1016.4 0.0
04/01:30am 11.6 9.8 1.5 50 4.4 CALM 0 0 0 0 1018.8 1016.6 0.0
04/01:00am 11.9 10.2 1.8 50 4.4 CALM 0 0 0 0 1019.0 1016.8 0.0
04/12:30am 12.4 10.6 1.4 47 4.8 CALM 0 0 0 0 1019.3 1017.1 0.0
04/12:00am 13.2 11.4 1.5 45 5.2 CALM 0 0 0 0 1019.5 1017.2 0.0
 
Date/Time
WST
Temp
°C
App
Temp
°C
Dew
Point
Rel
Hum
%
Delta-T
°C
Wind Press
QNH
hPa
Press
MSL
hPa
Rain
since 9 am
mm
Dir
 
Spd
km/h
Gust
km/h
Spd
kts
Gust
kts
03/11:30pm 16.0 13.0 1.0 36 6.7 NE 6 9 3 5 1019.8 1017.5 0.0
03/11:00pm 15.0 13.2 1.2 39 6.1 CALM 0 0 0 0 1019.9 1017.6 0.0
03/10:30pm 15.6 13.7 0.6 36 6.6 CALM 0 6 0 3 1020.0 1017.7 0.0
03/10:00pm 18.3 14.7 0.4 30 8.1 E 9 11 5 6 1020.2 1018.0 0.0
03/09:30pm 18.8 15.5 0.4 29 8.3 E 7 11 4 6 1020.3 1018.1 0.0
03/09:00pm 17.4 15.5 0.6 32 7.5 CALM 0 6 0 3 1020.3 1018.1 0.0
03/08:30pm 18.9 15.9 0.5 29 8.4 E 6 7 3 4 1020.3 1018.1 0.0
03/08:00pm 21.0 17.3 0.2 25 9.5 ENE 9 11 5 6 1020.1 1017.9 0.0
03/07:30pm 21.7 18.0 -0.3 23 10.1 E 9 11 5 6 1019.9 1017.6 0.0
03/07:00pm 22.4 19.2 -0.3 22 10.4 E 6 7 3 4 1019.5 1017.2 0.0
03/06:30pm 23.4 20.1 -0.1 21 11.0 NE 7 9 4 5 1019.3 1017.1 0.0
03/06:00pm 24.4 21.0 -0.7 19 11.6 NNE 7 11 4 6 1019.0 1016.8 0.0
03/05:30pm 26.0 22.2 -0.9 17 12.6 NNE 9 15 5 8 1018.9 1016.7 0.0
03/05:00pm 26.8 22.5 -2.0 15 13.3 NNE 11 17 6 9 1018.7 1016.5 0.0
03/04:30pm 27.0 22.3 -1.8 15 13.4 NNE 13 20 7 11 1018.5 1016.3 0.0
03/04:00pm 27.3 22.2 -1.6 15 13.5 NE 15 26 8 14 1018.5 1016.3 0.0
03/03:30pm 27.2 22.0 -2.6 14 13.7 NNE 15 26 8 14 1018.4 1016.2 0.0
03/03:00pm 27.7 22.7 -1.3 15 13.6 N 15 26 8 14 1018.4 1016.2 0.0
03/02:30pm 27.2 23.0 -0.8 16 13.3 ENE 11 17 6 9 1018.4 1016.2 0.0
03/02:00pm 26.6 22.3 -1.3 16 13.0 NNE 11 17 6 9 1018.8 1016.6 0.0
03/01:30pm 26.5 21.9 -1.3 16 13.0 NNE 13 22 7 12 1019.1 1016.9 0.0
03/01:00pm 25.8 21.1 -1.9 16 12.7 NE 13 20 7 11 1019.6 1017.3 0.0
03/12:30pm 25.6 20.6 -1.2 17 12.4 NNE 15 20 8 11 1019.9 1017.6 0.0
03/12:00pm 24.1 18.7 -1.7 18 11.7 NNE 17 26 9 14 1020.2 1018.0 0.0
03/11:30am 23.9 18.4 -1.8 18 11.6 NNE 17 24 9 13 1020.6 1018.4 0.0
03/11:00am 23.5 18.1 -1.4 19 11.3 NE 17 22 9 12 1021.0 1018.8 0.0
03/10:30am 22.8 16.8 -2.7 18 11.3 NE 19 24 10 13 1021.5 1019.2 0.0
03/10:00am 21.5 15.9 -3.1 19 10.6 NNE 17 22 9 12 1021.6 1019.3 0.0
03/09:30am 20.8 15.0 -4.4 18 10.6 NE 17 24 9 13 1021.7 1019.4 0.0
03/09:00am 19.5 14.6 -3.4 21 9.6 NE 13 17 7 9 1021.6 1019.3 -
03/08:30am 17.8 13.3 -3.6 23 8.9 NNE 11 15 6 8 1021.6 1019.3 -
03/08:00am 16.2 13.0 -3.3 26 8.0 ENE 4 7 2 4 1021.3 1019.1 0.0
03/07:30am 13.1 10.9 1.1 44 5.3 SSW 2 6 1 3 1021.1 1018.9 0.0
03/07:00am 9.3 7.5 1.5 58 3.3 CALM 0 0 0 0 1020.8 1018.6 0.0
03/06:30am 7.5 5.7 0.9 63 2.7 CALM 0 0 0 0 1020.5 1018.3 0.0
03/06:00am 7.3 4.3 1.0 64 2.6 SW 6 7 3 4 1020.3 1018.1 0.0
03/05:30am 7.2 4.2 1.1 65 2.5 W 6 7 3 4 1019.8 1017.5 0.0
03/05:00am 7.8 4.7 1.2 63 2.7 W 7 9 4 5 1019.3 1017.1 0.0
03/04:30am 7.7 5.1 1.1 63 2.7 WSW 4 7 2 4 1019.1 1016.9 0.0
03/04:00am 8.5 6.7 1.2 60 3.1 CALM 0 0 0 0 1018.8 1016.6 0.0
03/03:30am 8.7 5.7 1.1 59 3.2 S 6 7 3 4 1018.8 1016.6 0.0
03/03:00am 9.1 6.1 1.0 57 3.4 SSW 6 6 3 3 1019.1 1016.9 0.0
03/02:30am 9.5 6.6 1.2 56 3.5 SSE 6 9 3 5 1019.2 1017.0 0.0
03/02:00am 9.4 6.8 1.1 56 3.5 SW 4 9 2 5 1019.3 1017.1 0.0
03/01:30am 10.0 8.2 1.1 54 3.8 CALM 0 0 0 0 1019.3 1017.1 0.0
03/01:00am 10.0 8.2 1.1 54 3.8 CALM 0 0 0 0 1019.6 1017.3 0.0
03/12:30am 11.2 9.4 1.2 50 4.3 CALM 0 0 0 0 1019.7 1017.4 0.0
03/12:00am 12.6 10.8 1.0 45 5.0 CALM 0 0 0 0 1019.9 1017.6 0.0
 
Date/Time
WST
Temp
°C
App
Temp
°C
Dew
Point
Rel
Hum
%
Delta-T
°C
Wind Press
QNH
hPa
Press
MSL
hPa
Rain
since 9 am
mm
Dir
 
Spd
km/h
Gust
km/h
Spd
kts
Gust
kts
02/11:30pm 13.0 10.0 1.0 44 5.2 ESE 6 9 3 5 1019.9 1017.6 0.0
02/11:00pm 14.4 11.2 0.6 39 6.0 E 7 9 4 5 1020.0 1017.7 0.0
02/10:30pm 14.3 11.1 0.9 40 5.9 E 7 9 4 5 1020.1 1017.9 0.0
02/10:00pm 14.3 11.3 0.9 40 5.9 SE 6 7 3 4 1020.1 1017.9 0.0
02/09:30pm 15.6 12.6 0.6 36 6.6 ESE 6 9 3 5 1020.1 1017.9 0.0
02/09:00pm 16.4 12.8 0.5 34 7.1 NE 9 13 5 7 1020.0 1017.7 0.0
02/08:30pm 17.2 13.2 0.4 32 7.5 E 11 15 6 8 1019.8 1017.5 0.0
02/08:00pm 17.3 13.7 0.5 32 7.5 E 9 13 5 7 1019.8 1017.5 0.0
02/07:30pm 18.5 14.7 1.5 32 7.9 NE 11 13 6 7 1019.5 1017.2 0.0
02/07:00pm 19.6 15.3 1.1 29 8.5 NE 13 17 7 9 1019.1 1016.9 0.0
02/06:30pm 20.6 16.6 0.4 26 9.3 NE 11 13 6 7 1018.9 1016.7 0.0
02/06:00pm 21.6 18.3 0.2 24 9.9 NE 7 9 4 5 1018.6 1016.4 0.0
02/05:30pm 22.6 18.8 -0.8 21 10.7 NNE 9 15 5 8 1018.3 1016.0 0.0
02/05:00pm 22.9 19.0 -1.2 20 10.9 NE 9 13 5 7 1018.1 1015.8 0.0
02/04:30pm 23.2 19.4 -1.0 20 11.1 E 9 15 5 8 1017.8 1015.5 0.0
02/04:00pm 23.7 20.3 -0.6 20 11.2 NNE 7 19 4 10 1017.7 1015.4 0.0
02/03:30pm 23.3 18.3 -0.9 20 11.1 NNE 15 19 8 10 1017.6 1015.3 0.0
02/03:00pm 23.2 18.2 -1.0 20 11.1 E 15 24 8 13 1017.8 1015.5 0.0
02/02:30pm 22.6 18.3 -1.5 20 10.9 ENE 11 22 6 12 1018.1 1015.8 0.0
02/02:00pm 22.2 18.3 -1.8 20 10.7 NE 9 24 5 13 1018.5 1016.3 0.0
02/01:30pm 21.2 17.2 -2.0 21 10.2 E 9 20 5 11 1019.0 1016.8 0.0
02/01:00pm 20.6 15.1 -1.8 22 9.8 NE 17 24 9 13 1019.6 1017.3 0.0
02/12:30pm 20.0 15.3 -1.7 23 9.5 ENE 13 22 7 12 1020.0 1017.7 0.0
02/12:00pm 19.3 14.5 -2.3 23 9.3 E 13 26 7 14 1020.4 1018.2 0.0
02/11:30am 18.3 12.7 -2.6 24 8.9 E 17 24 9 13 1020.9 1018.7 0.0
02/11:00am 17.6 12.4 -2.6 25 8.5 E 15 26 8 14 1021.1 1018.9 0.0
02/10:30am 16.3 10.1 -3.2 26 8.0 E 20 28 11 15 1021.5 1019.2 0.0
02/10:00am 15.5 9.3 -3.4 27 7.7 ESE 20 33 11 18 1021.8 1019.6 0.0
02/09:30am 15.0 9.0 -3.3 28 7.4 E 19 26 10 14 1021.9 1019.7 0.0
02/09:00am 14.2 7.6 -3.6 29 7.1 ESE 22 30 12 16 1022.0 1019.8 0.0
02/08:30am 13.5 7.4 -3.7 30 6.8 ESE 19 28 10 15 1021.9 1019.7 0.0
02/08:00am 12.0 5.7 -3.8 33 6.1 ESE 20 30 11 16 1021.7 1019.4 0.0
02/07:30am 11.5 5.7 -4.2 33 6.0 ESE 17 28 9 15 1021.3 1019.1 0.0
02/07:00am 10.9 5.9 -3.9 35 5.6 ESE 13 19 7 10 1021.0 1018.8 0.0
02/06:30am 9.8 5.3 -3.1 40 5.0 ESE 11 17 6 9 1020.5 1018.3 0.0
02/06:00am 9.7 5.7 -2.6 42 4.8 SE 9 15 5 8 1020.3 1018.1 0.0
02/05:30am 9.7 5.7 -2.3 43 4.7 SE 9 11 5 6 1020.0 1017.7 0.0
02/05:00am 9.9 6.0 -1.8 44 4.6 SE 9 13 5 7 1019.6 1017.3 0.0
02/04:30am 10.1 6.2 -1.3 45 4.6 SSE 9 15 5 8 1019.3 1017.1 0.0
02/04:00am 10.3 6.5 -1.1 45 4.6 SSE 9 13 5 7 1019.3 1017.1 0.0
02/03:30am 11.1 6.9 -1.0 43 5.0 SE 11 17 6 9 1019.2 1017.0 0.0
02/03:00am 11.6 6.6 -0.9 42 5.2 SE 15 19 8 10 1019.2 1017.0 0.0
02/02:30am 12.1 6.8 -0.7 41 5.3 SE 17 24 9 13 1019.1 1016.9 0.0
02/02:00am 12.6 6.9 -0.6 40 5.5 SE 19 26 10 14 1019.1 1016.9 0.0
02/01:30am 12.9 8.0 -0.7 39 5.7 SE 15 22 8 12 1019.1 1016.9 0.0
02/01:00am 12.8 7.9 -0.8 39 5.7 SE 15 20 8 11 1019.1 1016.9 0.0
02/12:30am 12.2 8.1 -0.3 42 5.3 SSE 11 15 6 8 1019.1 1016.9 0.0
02/12:00am 12.0 7.9 -0.2 43 5.1 S 11 13 6 7 1019.0 1016.8 0.0
 
Date/Time
WST
Temp
°C
App
Temp
°C
Dew
Point
Rel
Hum
%
Delta-T
°C
Wind Press
QNH
hPa
Press
MSL
hPa
Rain
since 9 am
mm
Dir
 
Spd
km/h
Gust
km/h
Spd
kts
Gust
kts
01/11:30pm 12.2 8.5 -0.3 42 5.3 SSW 9 9 5 5 1019.1 1016.9 0.0
01/11:00pm 13.1 9.0 -0.5 39 5.7 SSW 11 13 6 7 1019.1 1016.9 0.0

Other Formats:

Comma delimited format used in spreadsheet applications
http://www.bom.gov.au/fwo/IDW60801/IDW60801.94317.axf

JavaScript Object Notation format (JSON) in row-major order
http://www.bom.gov.au/fwo/IDW60801/IDW60801.94317.json